createdAt,value
2017-03-15T00:00:35.524Z,0
2017-03-15T00:01:16.056Z,0
2017-03-15T00:01:56.593Z,0
2017-03-15T00:02:37.127Z,0
2017-03-15T00:03:17.658Z,0
2017-03-15T00:03:58.195Z,0
2017-03-15T00:04:38.728Z,0
2017-03-15T00:05:19.261Z,0
2017-03-15T00:05:59.796Z,0
2017-03-15T00:06:40.331Z,0
2017-03-15T00:07:20.863Z,0
2017-03-15T00:08:01.395Z,0
2017-03-15T00:08:41.932Z,0
2017-03-15T00:09:22.470Z,0
2017-03-15T00:10:03.005Z,0
2017-03-15T00:10:43.535Z,0
2017-03-15T00:11:24.069Z,0
2017-03-15T00:12:04.601Z,0
2017-03-15T00:12:45.129Z,0
2017-03-15T00:13:25.662Z,0
2017-03-15T00:14:06.252Z,0
2017-03-15T00:14:46.785Z,0
2017-03-15T00:15:27.320Z,0
2017-03-15T00:16:07.856Z,0
2017-03-15T00:16:48.394Z,0
2017-03-15T00:17:28.920Z,0
2017-03-15T00:18:09.449Z,0
2017-03-15T00:18:49.982Z,0
2017-03-15T00:19:30.518Z,0
2017-03-15T00:20:11.056Z,0
2017-03-15T00:20:51.593Z,0
2017-03-15T00:21:32.126Z,0
2017-03-15T00:22:12.673Z,0
2017-03-15T00:22:53.206Z,0
2017-03-15T00:23:33.743Z,0
2017-03-15T00:24:14.276Z,0
2017-03-15T00:24:54.812Z,0
2017-03-15T00:25:35.348Z,0
2017-03-15T00:26:15.877Z,0
2017-03-15T00:26:56.413Z,0
2017-03-15T00:27:36.931Z,0
2017-03-15T00:28:17.466Z,0
2017-03-15T00:28:58.004Z,0
2017-03-15T00:29:38.533Z,0
2017-03-15T00:30:19.077Z,0
2017-03-15T00:30:59.595Z,0
2017-03-15T00:31:40.132Z,0
2017-03-15T00:32:20.664Z,0
2017-03-15T00:33:01.196Z,0
2017-03-15T00:33:41.732Z,0
2017-03-15T00:34:22.270Z,0
2017-03-15T00:35:02.801Z,0
2017-03-15T00:35:43.343Z,0
2017-03-15T00:36:23.877Z,0
2017-03-15T00:37:04.420Z,0
2017-03-15T00:37:44.949Z,0
2017-03-15T00:38:25.486Z,0
2017-03-15T00:39:06.020Z,0
2017-03-15T00:39:46.549Z,0
2017-03-15T00:40:27.083Z,0
2017-03-15T00:41:07.651Z,0
2017-03-15T00:41:48.154Z,0
2017-03-15T00:42:28.688Z,0
2017-03-15T00:43:09.224Z,0
2017-03-15T00:43:49.746Z,0
2017-03-15T00:44:30.308Z,0
2017-03-15T00:45:10.840Z,0
2017-03-15T00:45:51.374Z,0
2017-03-15T00:46:31.909Z,0
2017-03-15T00:47:12.452Z,0
2017-03-15T00:47:52.990Z,0
2017-03-15T00:48:33.524Z,0
2017-03-15T00:49:14.060Z,0
2017-03-15T00:49:54.593Z,0
2017-03-15T00:50:35.129Z,0
2017-03-15T00:51:15.662Z,0
2017-03-15T00:51:56.196Z,0
2017-03-15T00:52:36.752Z,0
2017-03-15T00:53:17.275Z,0
2017-03-15T00:53:57.805Z,0
2017-03-15T00:54:38.340Z,0
2017-03-15T00:55:18.883Z,0
2017-03-15T00:55:59.409Z,0
2017-03-15T00:56:39.949Z,0
2017-03-15T00:57:20.480Z,0
2017-03-15T00:58:01.013Z,0
2017-03-15T00:58:41.548Z,0
2017-03-15T00:59:22.085Z,0
2017-03-15T01:00:02.618Z,0
2017-03-15T01:00:43.152Z,0
2017-03-15T01:01:23.688Z,0
2017-03-15T01:02:04.228Z,0
2017-03-15T01:02:44.760Z,0
2017-03-15T01:03:25.294Z,0
2017-03-15T01:04:05.830Z,0
2017-03-15T01:04:46.361Z,0
2017-03-15T01:05:26.898Z,0
2017-03-15T01:06:07.433Z,0
2017-03-15T01:06:47.969Z,0
2017-03-15T01:07:28.501Z,0
2017-03-15T01:08:09.043Z,0
2017-03-15T01:08:49.579Z,0
2017-03-15T01:09:30.106Z,0
2017-03-15T01:10:10.658Z,0
2017-03-15T01:10:51.197Z,0
2017-03-15T01:11:31.757Z,0
2017-03-15T01:12:12.258Z,0
2017-03-15T01:12:52.795Z,0
2017-03-15T01:13:33.329Z,0
2017-03-15T01:14:13.862Z,0
2017-03-15T01:14:54.394Z,0
2017-03-15T01:15:34.929Z,0
2017-03-15T01:16:15.461Z,0
2017-03-15T01:16:55.998Z,0
2017-03-15T01:17:36.532Z,0
2017-03-15T01:18:17.065Z,0
2017-03-15T01:18:57.596Z,0
2017-03-15T01:19:38.133Z,0
2017-03-15T01:20:18.672Z,0
2017-03-15T01:20:59.201Z,0
2017-03-15T01:21:39.737Z,0
2017-03-15T01:22:20.269Z,0
2017-03-15T01:23:00.805Z,0
2017-03-15T01:23:41.338Z,0
2017-03-15T01:24:21.876Z,0
2017-03-15T01:25:02.405Z,0
2017-03-15T01:25:42.940Z,0
2017-03-15T01:26:23.481Z,0
2017-03-15T01:27:04.017Z,0
2017-03-15T01:27:44.551Z,0
2017-03-15T01:28:25.088Z,0
2017-03-15T01:29:05.615Z,0
2017-03-15T01:29:46.157Z,0
2017-03-15T01:30:26.690Z,0
2017-03-15T01:31:07.225Z,0
2017-03-15T01:31:47.760Z,0
2017-03-15T01:32:28.297Z,0
2017-03-15T01:33:08.836Z,0
2017-03-15T01:33:49.368Z,0
2017-03-15T01:34:29.911Z,0
2017-03-15T01:35:10.446Z,0
2017-03-15T01:35:50.982Z,0
2017-03-15T01:36:31.509Z,0
2017-03-15T01:37:12.047Z,0
2017-03-15T01:37:52.581Z,0
2017-03-15T01:38:33.115Z,0
2017-03-15T01:39:13.648Z,0
2017-03-15T01:39:54.181Z,0
2017-03-15T01:40:34.718Z,0
2017-03-15T01:41:15.259Z,0
2017-03-15T01:41:55.788Z,0
2017-03-15T01:42:36.318Z,0
2017-03-15T01:43:16.868Z,0
2017-03-15T01:43:57.401Z,0
2017-03-15T01:44:37.935Z,0
2017-03-15T01:45:18.473Z,0
2017-03-15T01:45:59.016Z,0
2017-03-15T01:46:39.548Z,0
2017-03-15T01:47:20.082Z,0
2017-03-15T01:48:00.621Z,0
2017-03-15T01:48:41.157Z,0
2017-03-15T01:49:21.689Z,0
2017-03-15T01:50:02.226Z,0
2017-03-15T01:50:42.758Z,0
2017-03-15T01:51:23.291Z,0
2017-03-15T01:52:03.825Z,0
2017-03-15T01:52:44.364Z,0
2017-03-15T01:53:24.897Z,0
2017-03-15T01:54:05.433Z,0
2017-03-15T01:54:45.970Z,0
2017-03-15T01:55:26.498Z,0
2017-03-15T01:56:07.038Z,0
2017-03-15T01:56:47.578Z,0
2017-03-15T01:57:28.113Z,0
2017-03-15T01:58:08.658Z,0
2017-03-15T01:58:49.188Z,0
2017-03-15T01:59:29.745Z,0
2017-03-15T02:00:10.281Z,0
2017-03-15T02:00:50.816Z,0
2017-03-15T02:01:31.345Z,0
2017-03-15T02:02:11.882Z,0
2017-03-15T02:02:52.416Z,0
2017-03-15T02:03:32.950Z,0
2017-03-15T02:04:13.483Z,0
2017-03-15T02:04:54.019Z,0
2017-03-15T02:05:34.553Z,0
2017-03-15T02:06:15.089Z,0
2017-03-15T02:06:55.625Z,0
2017-03-15T02:07:36.162Z,0
2017-03-15T02:08:16.697Z,0
2017-03-15T02:08:57.232Z,0
2017-03-15T02:09:37.769Z,0
2017-03-15T02:10:18.305Z,0
2017-03-15T02:10:58.843Z,0
2017-03-15T02:11:39.381Z,0
2017-03-15T02:12:19.920Z,0
2017-03-15T02:13:00.456Z,0
2017-03-15T02:13:40.988Z,0
2017-03-15T02:14:21.525Z,0
2017-03-15T02:15:02.050Z,0
2017-03-15T02:15:42.591Z,0
2017-03-15T02:16:23.126Z,0
2017-03-15T02:17:03.659Z,0
2017-03-15T02:17:44.191Z,0
2017-03-15T02:18:24.733Z,0
2017-03-15T02:19:05.260Z,0
2017-03-15T02:19:45.796Z,0
2017-03-15T02:20:26.331Z,0
2017-03-15T02:21:06.876Z,0
2017-03-15T02:21:47.412Z,0
2017-03-15T02:22:27.945Z,0
2017-03-15T02:23:08.479Z,0
2017-03-15T02:23:49.023Z,0
2017-03-15T02:24:29.552Z,0
2017-03-15T02:25:10.086Z,0
2017-03-15T02:25:50.627Z,0
2017-03-15T02:26:31.158Z,0
2017-03-15T02:27:11.689Z,0
2017-03-15T02:27:52.224Z,0
2017-03-15T02:28:32.758Z,0
2017-03-15T02:29:13.307Z,0
2017-03-15T02:29:53.853Z,0
2017-03-15T02:30:34.388Z,0
2017-03-15T02:31:14.929Z,0
2017-03-15T02:31:55.469Z,0
2017-03-15T02:32:36.000Z,0
2017-03-15T02:33:16.522Z,0
2017-03-15T02:33:57.057Z,0
2017-03-15T02:34:37.592Z,0
2017-03-15T02:35:18.124Z,0
2017-03-15T02:35:58.663Z,0
2017-03-15T02:36:39.202Z,0
2017-03-15T02:37:19.731Z,0
2017-03-15T02:38:00.267Z,0
2017-03-15T02:38:40.810Z,0
2017-03-15T02:39:21.346Z,0
2017-03-15T02:40:01.878Z,0
2017-03-15T02:40:42.414Z,0
2017-03-15T02:41:22.946Z,0
2017-03-15T02:42:03.484Z,0
2017-03-15T02:42:44.021Z,0
2017-03-15T02:43:24.566Z,0
2017-03-15T02:44:05.101Z,0
2017-03-15T02:44:45.630Z,0
2017-03-15T02:45:26.166Z,0
2017-03-15T02:46:06.696Z,0
2017-03-15T02:46:47.228Z,0
2017-03-15T02:47:27.766Z,0
2017-03-15T02:48:08.315Z,0
2017-03-15T02:48:48.852Z,0
2017-03-15T02:49:29.383Z,0
2017-03-15T02:50:09.921Z,0
2017-03-15T02:50:50.456Z,0
2017-03-15T02:51:30.991Z,0
2017-03-15T02:52:11.526Z,0
2017-03-15T02:52:52.063Z,0
2017-03-15T02:53:32.599Z,0
2017-03-15T02:54:13.138Z,0
2017-03-15T02:54:53.669Z,0
2017-03-15T02:55:34.199Z,0
2017-03-15T02:56:14.733Z,0
2017-03-15T02:56:55.274Z,0
2017-03-15T02:57:35.812Z,0
2017-03-15T02:58:16.349Z,0
2017-03-15T02:58:56.889Z,0
2017-03-15T02:59:37.422Z,0
2017-03-15T03:00:17.955Z,0
2017-03-15T03:00:58.488Z,0
2017-03-15T03:01:39.028Z,0
2017-03-15T03:02:19.563Z,0
2017-03-15T03:03:00.104Z,0
2017-03-15T03:03:40.643Z,0
2017-03-15T03:04:21.175Z,0
2017-03-15T03:05:01.706Z,0
2017-03-15T03:05:42.238Z,0
2017-03-15T03:06:22.780Z,0
2017-03-15T03:07:03.318Z,0
2017-03-15T03:07:43.860Z,0
2017-03-15T03:08:24.398Z,0
2017-03-15T03:09:04.933Z,0
2017-03-15T03:09:45.462Z,0
2017-03-15T03:10:26.008Z,0
2017-03-15T03:11:06.544Z,0
2017-03-15T03:11:47.078Z,0
2017-03-15T03:12:27.606Z,0
2017-03-15T03:13:08.148Z,0
2017-03-15T03:13:48.684Z,0
2017-03-15T03:14:29.216Z,0
2017-03-15T03:15:09.751Z,0
2017-03-15T03:15:50.289Z,0
2017-03-15T03:16:30.824Z,0
2017-03-15T03:17:11.357Z,0
2017-03-15T03:17:51.896Z,0
2017-03-15T03:18:32.437Z,0
2017-03-15T03:19:12.972Z,0
2017-03-15T03:19:53.503Z,0
2017-03-15T03:20:34.042Z,0
2017-03-15T03:21:14.583Z,0
2017-03-15T03:21:55.118Z,0
2017-03-15T03:22:35.659Z,0
2017-03-15T03:23:16.190Z,0
2017-03-15T03:23:56.729Z,0
2017-03-15T03:24:37.259Z,0
2017-03-15T03:25:17.794Z,0
2017-03-15T03:25:58.332Z,0
2017-03-15T03:26:38.874Z,0
2017-03-15T03:27:19.412Z,0
2017-03-15T03:27:59.953Z,0
2017-03-15T03:28:40.496Z,0
2017-03-15T03:29:21.024Z,0
2017-03-15T03:30:01.558Z,0
2017-03-15T03:30:42.101Z,0
2017-03-15T03:31:22.636Z,0
2017-03-15T03:32:03.176Z,0
2017-03-15T03:32:43.716Z,0
2017-03-15T03:33:24.250Z,0
2017-03-15T03:34:04.785Z,0
2017-03-15T03:34:45.319Z,0
2017-03-15T03:35:25.854Z,0
2017-03-15T03:36:06.391Z,0
2017-03-15T03:36:46.931Z,0
2017-03-15T03:37:27.470Z,0
2017-03-15T03:38:08.004Z,0
2017-03-15T03:38:48.542Z,0
2017-03-15T03:39:29.075Z,0
2017-03-15T03:40:09.609Z,0
2017-03-15T03:40:50.144Z,0
2017-03-15T03:41:30.686Z,0
2017-03-15T03:42:11.229Z,0
2017-03-15T03:42:51.763Z,0
2017-03-15T03:43:32.296Z,0
2017-03-15T03:44:12.872Z,0
2017-03-15T03:44:53.386Z,0
2017-03-15T03:45:33.922Z,0
2017-03-15T03:46:14.489Z,0
2017-03-15T03:46:54.998Z,0
2017-03-15T03:47:35.530Z,0
2017-03-15T03:48:16.066Z,0
2017-03-15T03:48:56.598Z,0
2017-03-15T03:49:37.131Z,0
2017-03-15T03:50:17.676Z,0
2017-03-15T03:50:58.216Z,0
2017-03-15T03:51:38.749Z,0
2017-03-15T03:52:19.283Z,0
2017-03-15T03:52:59.826Z,0
2017-03-15T03:53:40.353Z,0
2017-03-15T03:54:20.890Z,0
2017-03-15T03:55:01.428Z,0
2017-03-15T03:55:41.970Z,0
2017-03-15T03:56:22.503Z,0
2017-03-15T03:57:03.038Z,0
2017-03-15T03:57:43.569Z,0
2017-03-15T03:58:24.107Z,0
2017-03-15T03:59:04.637Z,0
2017-03-15T03:59:45.173Z,0
2017-03-15T04:00:25.785Z,0
2017-03-15T04:01:06.325Z,0
2017-03-15T04:01:46.855Z,0
2017-03-15T04:02:27.399Z,0
2017-03-15T04:03:07.937Z,0
2017-03-15T04:03:48.478Z,0
2017-03-15T04:04:29.017Z,0
2017-03-15T04:05:09.558Z,0
2017-03-15T04:05:50.095Z,0
2017-03-15T04:06:30.626Z,0
2017-03-15T04:07:11.165Z,0
2017-03-15T04:07:51.709Z,0
2017-03-15T04:08:32.243Z,0
2017-03-15T04:09:12.783Z,0
2017-03-15T04:09:53.320Z,0
2017-03-15T04:10:33.863Z,0
2017-03-15T04:11:14.407Z,0
2017-03-15T04:11:54.967Z,0
2017-03-15T04:12:35.502Z,0
2017-03-15T04:13:16.038Z,0
2017-03-15T04:13:56.603Z,0
2017-03-15T04:14:37.136Z,0
2017-03-15T04:15:17.673Z,0
2017-03-15T04:15:58.217Z,0
2017-03-15T04:16:38.751Z,0
2017-03-15T04:17:19.293Z,0
2017-03-15T04:17:59.888Z,0
2017-03-15T04:18:40.415Z,0
2017-03-15T04:19:20.957Z,0
2017-03-15T04:20:01.495Z,0
2017-03-15T04:20:42.023Z,0
2017-03-15T04:21:22.563Z,0
2017-03-15T04:22:03.098Z,0
2017-03-15T04:22:43.632Z,0
2017-03-15T04:23:24.164Z,0
2017-03-15T04:24:04.700Z,0
2017-03-15T04:24:45.236Z,0
2017-03-15T04:25:25.767Z,0
2017-03-15T04:26:06.304Z,0
2017-03-15T04:26:46.845Z,0
2017-03-15T04:27:27.382Z,0
2017-03-15T04:28:07.947Z,0
2017-03-15T04:28:48.480Z,0
2017-03-15T04:29:29.014Z,0
2017-03-15T04:30:09.558Z,0
2017-03-15T04:30:50.094Z,0
2017-03-15T04:31:30.654Z,0
2017-03-15T04:32:11.299Z,0
2017-03-15T04:32:51.833Z,0
2017-03-15T04:33:32.373Z,0
2017-03-15T04:34:12.912Z,0
2017-03-15T04:34:53.445Z,0
2017-03-15T04:35:33.987Z,0
2017-03-15T04:36:14.516Z,0
2017-03-15T04:36:55.050Z,0
2017-03-15T04:37:35.581Z,0
2017-03-15T04:38:16.109Z,0
2017-03-15T04:38:56.643Z,0
2017-03-15T04:39:37.176Z,0
2017-03-15T04:40:17.713Z,0
2017-03-15T04:40:58.249Z,0
2017-03-15T04:41:38.782Z,0
2017-03-15T04:42:19.321Z,0
2017-03-15T04:42:59.844Z,0
2017-03-15T04:43:40.379Z,0
2017-03-15T04:44:20.918Z,0
2017-03-15T04:45:01.457Z,0
2017-03-15T04:45:41.994Z,0
2017-03-15T04:46:22.532Z,0
2017-03-15T04:47:03.067Z,0
2017-03-15T04:47:43.603Z,0
2017-03-15T04:48:24.143Z,0
2017-03-15T04:49:04.678Z,0
2017-03-15T04:49:45.240Z,0
2017-03-15T04:50:25.798Z,0
2017-03-15T04:51:06.333Z,0
2017-03-15T04:51:46.873Z,0
2017-03-15T04:52:27.448Z,0
2017-03-15T04:53:07.985Z,0
2017-03-15T04:53:48.526Z,0
2017-03-15T04:54:29.062Z,0
2017-03-15T04:55:09.592Z,0
2017-03-15T04:55:50.131Z,0
2017-03-15T04:56:30.674Z,0
2017-03-15T04:57:11.210Z,0
2017-03-15T04:57:51.744Z,0
2017-03-15T04:58:32.282Z,0
2017-03-15T04:59:12.810Z,0
2017-03-15T04:59:53.351Z,0
2017-03-15T05:00:33.898Z,0
2017-03-15T05:01:14.436Z,0
2017-03-15T05:01:54.970Z,0
2017-03-15T05:02:35.501Z,0
2017-03-15T05:03:16.059Z,0
2017-03-15T05:03:56.568Z,0
2017-03-15T05:04:37.112Z,0
2017-03-15T05:05:17.649Z,0
2017-03-15T05:05:58.188Z,0
2017-03-15T05:06:38.722Z,0
2017-03-15T05:07:19.254Z,0
2017-03-15T05:07:59.790Z,0
2017-03-15T05:08:40.322Z,0
2017-03-15T05:09:20.855Z,0
2017-03-15T05:10:01.394Z,0
2017-03-15T05:10:41.925Z,0
2017-03-15T05:11:22.461Z,0
2017-03-15T05:12:03.000Z,0
2017-03-15T05:12:43.540Z,0
2017-03-15T05:13:24.086Z,0
2017-03-15T05:14:04.628Z,0
2017-03-15T05:14:45.171Z,0
2017-03-15T05:15:25.708Z,0
2017-03-15T05:16:06.241Z,0
2017-03-15T05:16:46.780Z,0
2017-03-15T05:17:27.387Z,0
2017-03-15T05:18:07.926Z,0
2017-03-15T05:18:48.464Z,0
2017-03-15T05:19:29.005Z,0
2017-03-15T05:20:09.545Z,0
2017-03-15T05:20:50.081Z,0
2017-03-15T05:21:30.616Z,0
2017-03-15T05:22:11.146Z,0
2017-03-15T05:22:51.692Z,0
2017-03-15T05:23:32.539Z,0
2017-03-15T05:24:12.867Z,0
2017-03-15T05:24:53.398Z,0
2017-03-15T05:25:33.922Z,0
2017-03-15T05:26:14.458Z,0
2017-03-15T05:26:55.424Z,0
2017-03-15T05:27:36.011Z,0
2017-03-15T05:28:16.542Z,0
2017-03-15T05:28:57.079Z,4
2017-03-15T05:29:37.620Z,4
2017-03-15T05:30:18.156Z,4
2017-03-15T05:30:58.693Z,4
2017-03-15T05:31:39.238Z,4
2017-03-15T05:32:19.770Z,4
2017-03-15T05:33:00.339Z,4
2017-03-15T05:33:40.875Z,4
2017-03-15T05:34:21.408Z,4
2017-03-15T05:35:01.946Z,4
2017-03-15T05:35:42.485Z,4
2017-03-15T05:36:23.026Z,8
2017-03-15T05:37:03.558Z,8
2017-03-15T05:37:44.093Z,4
2017-03-15T05:38:24.634Z,8
2017-03-15T05:39:05.177Z,8
2017-03-15T05:39:45.709Z,4
2017-03-15T05:40:26.253Z,4
2017-03-15T05:41:06.790Z,4
2017-03-15T05:41:47.322Z,8
2017-03-15T05:42:27.856Z,12
2017-03-15T05:43:08.396Z,12
2017-03-15T05:43:48.934Z,20
2017-03-15T05:44:29.463Z,20
2017-03-15T05:45:09.994Z,24
2017-03-15T05:45:50.538Z,24
2017-03-15T05:46:31.076Z,28
2017-03-15T05:47:11.613Z,28
2017-03-15T05:47:52.166Z,32
2017-03-15T05:48:32.759Z,28
2017-03-15T05:49:13.336Z,28
2017-03-15T05:49:53.874Z,32
2017-03-15T05:50:34.402Z,28
2017-03-15T05:51:14.940Z,32
2017-03-15T05:51:55.478Z,28
2017-03-15T05:52:36.021Z,28
2017-03-15T05:53:16.556Z,28
2017-03-15T05:53:57.090Z,32
2017-03-15T05:54:37.640Z,36
2017-03-15T05:55:18.165Z,32
2017-03-15T05:55:58.697Z,36
2017-03-15T05:56:39.235Z,36
2017-03-15T05:57:19.772Z,36
2017-03-15T05:58:00.312Z,36
2017-03-15T05:58:40.844Z,40
2017-03-15T05:59:21.379Z,36
2017-03-15T06:00:01.912Z,36
2017-03-15T06:00:42.447Z,40
2017-03-15T06:01:22.984Z,40
2017-03-15T06:02:03.519Z,40
2017-03-15T06:02:44.063Z,44
2017-03-15T06:03:24.595Z,48
2017-03-15T06:04:05.132Z,48
2017-03-15T06:04:45.665Z,48
2017-03-15T06:05:26.201Z,48
2017-03-15T06:06:06.736Z,48
2017-03-15T06:06:47.268Z,48
2017-03-15T06:07:27.806Z,48
2017-03-15T06:08:08.348Z,48
2017-03-15T06:08:48.878Z,48
2017-03-15T06:09:29.410Z,44
2017-03-15T06:10:09.946Z,44
2017-03-15T06:10:50.480Z,44
2017-03-15T06:11:31.019Z,52
2017-03-15T06:12:11.552Z,52
2017-03-15T06:12:52.124Z,60
2017-03-15T06:13:32.659Z,72
2017-03-15T06:14:13.193Z,80
2017-03-15T06:14:53.731Z,84
2017-03-15T06:15:34.266Z,92
2017-03-15T06:16:14.801Z,104
2017-03-15T06:16:55.373Z,112
2017-03-15T06:17:35.939Z,128
2017-03-15T06:18:16.473Z,140
2017-03-15T06:18:58.498Z,152
2017-03-15T06:19:39.558Z,172
2017-03-15T06:20:20.093Z,172
2017-03-15T06:21:00.628Z,176
2017-03-15T06:21:41.162Z,184
2017-03-15T06:22:21.700Z,188
2017-03-15T06:23:02.238Z,192
2017-03-15T06:23:42.778Z,204
2017-03-15T06:24:23.376Z,220
2017-03-15T06:25:03.855Z,240
2017-03-15T06:25:44.380Z,252
2017-03-15T06:26:24.917Z,264
2017-03-15T06:27:05.439Z,272
2017-03-15T06:27:45.982Z,276
2017-03-15T06:28:26.513Z,280
2017-03-15T06:29:07.050Z,264
2017-03-15T06:29:47.582Z,224
2017-03-15T06:30:28.122Z,196
2017-03-15T06:31:08.663Z,184
2017-03-15T06:31:49.216Z,180
2017-03-15T06:32:29.777Z,176
2017-03-15T06:33:10.323Z,176
2017-03-15T06:33:50.865Z,176
2017-03-15T06:34:31.389Z,176
2017-03-15T06:37:05.949Z,172
2017-03-15T06:37:46.487Z,172
2017-03-15T06:38:27.016Z,176
2017-03-15T06:39:07.545Z,184
2017-03-15T06:39:48.090Z,180
2017-03-15T06:40:28.609Z,168
2017-03-15T06:41:09.137Z,160
2017-03-15T06:41:49.661Z,156
2017-03-15T06:42:30.198Z,172
2017-03-15T06:43:10.831Z,188
2017-03-15T06:43:51.369Z,196
2017-03-15T06:44:31.905Z,212
2017-03-15T06:45:12.437Z,200
2017-03-15T06:45:52.971Z,212
2017-03-15T06:46:33.504Z,204
2017-03-15T06:47:14.038Z,208
2017-03-15T06:47:54.564Z,220
2017-03-15T06:48:35.092Z,240
2017-03-15T06:49:15.634Z,244
2017-03-15T06:49:56.173Z,240
2017-03-15T06:50:36.694Z,248
2017-03-15T06:51:17.223Z,276
2017-03-15T06:51:57.759Z,280
2017-03-15T06:52:38.292Z,300
2017-03-15T06:53:18.826Z,324
2017-03-15T06:53:59.422Z,324
2017-03-15T06:54:40.220Z,304
2017-03-15T06:55:20.821Z,312
2017-03-15T06:56:01.352Z,312
2017-03-15T06:56:41.888Z,300
2017-03-15T06:57:22.421Z,296
2017-03-15T06:58:02.951Z,336
2017-03-15T06:58:43.477Z,344
2017-03-15T06:59:24.009Z,308
2017-03-15T07:00:04.541Z,352
2017-03-15T07:00:45.074Z,368
2017-03-15T07:01:25.609Z,432
2017-03-15T07:02:06.142Z,512
2017-03-15T07:02:46.676Z,560
2017-03-15T07:03:27.211Z,700
2017-03-15T07:04:07.754Z,764
2017-03-15T07:04:48.280Z,812
2017-03-15T07:05:28.816Z,944
2017-03-15T07:06:09.350Z,1048
2017-03-15T07:06:49.885Z,1128
2017-03-15T07:07:30.426Z,1124
2017-03-15T07:08:10.961Z,1148
2017-03-15T07:08:51.495Z,1300
2017-03-15T07:09:32.026Z,1380
2017-03-15T07:10:12.558Z,1456
2017-03-15T07:10:53.088Z,1516
2017-03-15T07:11:33.623Z,1456
2017-03-15T07:12:14.158Z,1388
2017-03-15T07:12:54.714Z,1508
2017-03-15T07:13:35.251Z,1668
2017-03-15T07:14:15.778Z,1680
2017-03-15T07:14:56.310Z,1504
2017-03-15T07:15:36.844Z,1416
2017-03-15T07:16:17.388Z,1472
2017-03-15T07:16:57.923Z,1512
2017-03-15T07:17:38.465Z,1604
2017-03-15T07:18:19.003Z,1720
2017-03-15T07:18:59.539Z,1708
2017-03-15T07:19:40.056Z,1656
2017-03-15T07:20:20.591Z,1608
2017-03-15T07:21:01.129Z,1696
2017-03-15T07:21:41.666Z,1776
2017-03-15T07:22:22.205Z,1796
2017-03-15T07:23:02.742Z,1800
2017-03-15T07:23:43.280Z,1964
2017-03-15T07:24:23.815Z,2120
2017-03-15T07:25:04.347Z,2384
2017-03-15T07:25:44.886Z,2364
2017-03-15T07:26:25.413Z,2412
2017-03-15T07:27:05.959Z,2624
2017-03-15T07:27:46.499Z,2540
2017-03-15T07:28:27.031Z,2284
2017-03-15T07:29:07.550Z,2328
2017-03-15T07:29:48.099Z,2612
2017-03-15T07:30:28.634Z,2452
2017-03-15T07:31:09.173Z,2308
2017-03-15T07:31:49.713Z,2188
2017-03-15T07:32:30.257Z,2148
2017-03-15T07:33:10.796Z,2220
2017-03-15T07:33:51.372Z,2320
2017-03-15T07:34:31.918Z,2184
2017-03-15T07:35:12.453Z,2044
2017-03-15T07:35:52.989Z,1828
2017-03-15T07:36:33.521Z,1656
2017-03-15T07:37:14.055Z,1560
2017-03-15T07:37:54.590Z,1524
2017-03-15T07:38:35.121Z,1668
2017-03-15T07:39:15.662Z,1852
2017-03-15T07:39:56.193Z,1860
2017-03-15T07:40:36.720Z,1852
2017-03-15T07:41:17.303Z,1848
2017-03-15T07:41:57.833Z,1836
2017-03-15T07:42:38.370Z,1916
2017-03-15T07:43:18.911Z,2120
2017-03-15T07:43:59.448Z,2188
2017-03-15T07:44:39.988Z,2176
2017-03-15T07:45:20.524Z,2140
2017-03-15T07:46:01.058Z,1936
2017-03-15T07:46:41.601Z,1784
2017-03-15T07:47:22.104Z,1812
2017-03-15T07:48:02.624Z,2060
2017-03-15T07:48:43.181Z,2312
2017-03-15T07:49:23.771Z,2600
2017-03-15T07:50:04.339Z,2744
2017-03-15T07:50:44.891Z,2848
2017-03-15T07:51:25.404Z,2780
2017-03-15T07:52:05.946Z,2808
2017-03-15T07:52:46.483Z,2880
2017-03-15T07:53:27.020Z,2836
2017-03-15T07:54:07.545Z,2828
2017-03-15T07:54:48.087Z,2848
2017-03-15T07:55:28.611Z,2860
2017-03-15T07:56:09.158Z,2804
2017-03-15T07:56:49.705Z,2768
2017-03-15T07:57:30.238Z,2696
2017-03-15T07:58:10.778Z,2696
2017-03-15T07:58:51.322Z,2888
2017-03-15T07:59:31.847Z,3200
2017-03-15T08:00:12.381Z,3440
2017-03-15T08:00:52.921Z,3416
2017-03-15T08:01:33.452Z,3216
2017-03-15T08:02:13.989Z,2988
2017-03-15T08:02:54.525Z,2728
2017-03-15T08:03:35.056Z,2560
2017-03-15T08:04:15.590Z,2560
2017-03-15T08:04:56.127Z,2604
2017-03-15T08:05:36.658Z,2636
2017-03-15T08:06:17.195Z,2688
2017-03-15T08:06:57.733Z,2756
2017-03-15T08:07:38.263Z,2928
2017-03-15T08:08:18.805Z,3000
2017-03-15T08:08:59.332Z,2984
2017-03-15T08:09:39.863Z,2804
2017-03-15T08:10:20.398Z,2756
2017-03-15T08:11:00.935Z,2688
2017-03-15T08:11:41.467Z,2652
2017-03-15T08:12:21.998Z,2604
2017-03-15T08:13:02.533Z,2512
2017-03-15T08:13:43.065Z,2428
2017-03-15T08:14:23.599Z,2360
2017-03-15T08:15:04.134Z,2464
2017-03-15T08:15:44.667Z,2560
2017-03-15T08:16:25.202Z,2632
2017-03-15T08:17:05.737Z,2704
2017-03-15T08:17:46.269Z,2708
2017-03-15T08:18:26.803Z,2760
2017-03-15T08:19:07.333Z,2904
2017-03-15T08:19:47.871Z,3040
2017-03-15T08:20:28.404Z,3136
2017-03-15T08:21:08.938Z,3300
2017-03-15T08:21:49.460Z,3460
2017-03-15T08:22:30.005Z,3704
2017-03-15T08:23:10.539Z,4004
2017-03-15T08:23:51.071Z,4284
2017-03-15T08:24:31.594Z,4528
2017-03-15T08:25:12.132Z,4732
2017-03-15T08:25:52.668Z,4968
2017-03-15T08:26:33.203Z,5000
2017-03-15T08:27:13.737Z,4808
2017-03-15T08:27:54.265Z,4500
2017-03-15T08:28:34.798Z,4212
2017-03-15T08:29:15.332Z,4112
2017-03-15T08:29:55.860Z,4076
2017-03-15T08:30:36.397Z,4080
2017-03-15T08:31:16.930Z,3992
2017-03-15T08:31:57.467Z,3772
2017-03-15T08:32:38.000Z,3624
2017-03-15T08:33:18.532Z,3472
2017-03-15T08:33:59.063Z,3376
2017-03-15T08:34:39.600Z,2900
2017-03-15T08:35:20.132Z,2756
2017-03-15T08:36:00.661Z,2824
2017-03-15T08:36:41.200Z,2692
2017-03-15T08:37:21.749Z,2472
2017-03-15T08:38:02.284Z,2520
2017-03-15T08:38:42.855Z,2644
2017-03-15T08:39:23.379Z,2824
2017-03-15T08:40:03.917Z,3084
2017-03-15T08:40:44.439Z,3604
2017-03-15T08:41:24.975Z,3960
2017-03-15T08:42:05.507Z,4056
2017-03-15T08:42:46.039Z,3800
2017-03-15T08:43:26.580Z,3668
2017-03-15T08:44:07.120Z,3320
2017-03-15T08:44:47.651Z,2944
2017-03-15T08:45:28.185Z,2508
2017-03-15T08:46:08.717Z,2372
2017-03-15T08:46:49.257Z,2380
2017-03-15T08:47:29.791Z,2492
2017-03-15T08:48:10.326Z,2292
2017-03-15T08:48:50.860Z,2124
2017-03-15T08:49:31.388Z,1896
2017-03-15T08:50:11.921Z,1684
2017-03-15T08:50:52.461Z,1580
2017-03-15T08:51:32.995Z,1472
2017-03-15T08:52:13.529Z,1416
2017-03-15T08:52:54.061Z,1352
2017-03-15T08:53:34.598Z,1400
2017-03-15T08:54:15.134Z,1540
2017-03-15T08:54:55.669Z,1768
2017-03-15T08:55:36.213Z,2028
2017-03-15T08:56:16.748Z,2268
2017-03-15T08:56:57.280Z,2512
2017-03-15T08:57:37.810Z,2936
2017-03-15T08:58:18.350Z,3216
2017-03-15T08:58:58.882Z,3328
2017-03-15T08:59:39.416Z,3264
2017-03-15T09:00:19.954Z,2844
2017-03-15T09:01:00.494Z,2724
2017-03-15T09:01:41.032Z,2952
2017-03-15T09:02:21.565Z,3072
2017-03-15T09:03:02.104Z,2932
2017-03-15T09:03:42.643Z,2780
2017-03-15T09:04:23.178Z,2732
2017-03-15T09:05:03.721Z,2840
2017-03-15T09:05:44.254Z,2892
2017-03-15T09:06:24.788Z,2680
2017-03-15T09:07:05.331Z,2684
2017-03-15T09:07:45.845Z,2680
2017-03-15T09:08:26.382Z,2732
2017-03-15T09:09:06.924Z,2780
2017-03-15T09:09:47.457Z,2700
2017-03-15T09:10:27.990Z,2896
2017-03-15T09:11:08.529Z,3060
2017-03-15T09:11:49.070Z,3096
2017-03-15T09:12:29.605Z,3172
2017-03-15T09:13:10.139Z,3256
2017-03-15T09:13:50.677Z,3348
2017-03-15T09:14:31.212Z,3416
2017-03-15T09:15:11.749Z,3464
2017-03-15T09:15:52.281Z,3528
2017-03-15T09:16:32.815Z,3660
2017-03-15T09:17:13.364Z,3796
2017-03-15T09:17:53.893Z,3940
2017-03-15T09:18:34.432Z,4084
2017-03-15T09:19:14.964Z,4184
2017-03-15T09:19:55.499Z,4156
2017-03-15T09:20:36.038Z,4124
2017-03-15T09:21:16.570Z,4404
2017-03-15T09:21:57.097Z,4588
2017-03-15T09:22:37.634Z,4700
2017-03-15T09:23:18.173Z,4756
2017-03-15T09:23:58.704Z,4776
2017-03-15T09:24:39.252Z,4720
2017-03-15T09:25:19.793Z,4868
2017-03-15T09:26:00.331Z,4980
2017-03-15T09:26:40.862Z,4916
2017-03-15T09:27:21.394Z,4868
2017-03-15T09:28:01.938Z,4940
2017-03-15T09:28:42.473Z,4744
2017-03-15T09:29:23.018Z,4656
2017-03-15T09:30:03.557Z,4564
2017-03-15T09:30:44.101Z,4292
2017-03-15T09:31:24.636Z,4116
2017-03-15T09:32:05.175Z,3992
2017-03-15T09:32:45.708Z,3976
2017-03-15T09:33:26.242Z,3684
2017-03-15T09:34:06.779Z,3752
2017-03-15T09:34:47.312Z,4136
2017-03-15T09:35:27.851Z,4548
2017-03-15T09:36:08.376Z,4952
2017-03-15T09:36:48.912Z,4952
2017-03-15T09:37:29.447Z,4836
2017-03-15T09:38:09.984Z,4876
2017-03-15T09:38:50.523Z,4740
2017-03-15T09:39:31.064Z,4272